Time;durP1;ratioP1;P1;durP2;ratioP2;P2;SDS_P1;SDS_P2;PMS_P1;PMS_P2;Temp;Humidity;BMP_temperature;BMP_pressure;BME280_temperature;BME280_humidity;BME280_pressure;Samples;Min_cycle;Max_cycle;Signal;HPM_P1;HPM_P2
2022/01/04 00:01:58;;;;;;;3.80;3.23;;;9.50;99.90;;;;;;5069475;28;20464;-43
2022/01/04 00:04:24;;;;;;;4.67;3.97;;;9.40;99.90;;;;;;5065112;28;20189;-44
2022/01/04 00:06:50;;;;;;;5.47;3.70;;;9.50;99.90;;;;;;5066558;28;20461;-45
2022/01/04 00:09:16;;;;;;;3.70;2.97;;;9.60;99.90;;;;;;5066612;28;20416;-43
2022/01/04 00:11:56;;;;;;;4.90;3.67;;;9.50;99.90;;;;;;5066792;28;20212;-44
2022/01/04 00:14:22;;;;;;;4.33;3.40;;;9.40;99.90;;;;;;5066222;28;20909;-45
2022/01/04 00:16:50;;;;;;;6.53;3.40;;;9.70;99.90;;;;;;5062217;28;21066;-43
2022/01/04 00:19:17;;;;;;;6.07;3.17;;;9.40;99.90;;;;;;5064127;28;20246;-45
2022/01/04 00:21:43;;;;;;;3.47;3.17;;;9.30;99.90;;;;;;5065252;28;20415;-43
2022/01/04 00:24:09;;;;;;;3.43;3.07;;;9.40;99.90;;;;;;5065835;28;20748;-44
2022/01/04 00:26:35;;;;;;;5.30;3.17;;;9.40;99.90;;;;;;5066975;28;20296;-44
2022/01/04 00:29:01;;;;;;;2.90;2.70;;;9.40;99.90;;;;;;5066763;28;20530;-46
2022/01/04 00:31:26;;;;;;;3.50;2.73;;;9.30;99.90;;;;;;5063443;28;20930;-42
2022/01/04 00:33:52;;;;;;;5.90;2.80;;;9.20;99.90;;;;;;5064171;28;20902;-45
2022/01/04 00:36:19;;;;;;;3.20;2.90;;;9.30;99.90;;;;;;5070170;28;20222;-43
2022/01/04 00:38:44;;;;;;;5.00;3.40;;;9.50;99.90;;;;;;5070160;28;20780;-43
2022/01/04 00:41:10;;;;;;;4.83;3.20;;;9.40;99.90;;;;;;5069778;28;20589;-46
2022/01/04 00:43:36;;;;;;;3.60;3.30;;;9.50;99.90;;;;;;5069696;28;20196;-45
2022/01/04 00:46:01;;;;;;;3.83;3.43;;;9.50;99.90;;;;;;5064894;28;20726;-43
2022/01/04 00:50:54;;;;;;;3.80;3.40;;;9.40;99.90;;;;;;5070262;28;20259;-43
2022/01/04 00:53:20;;;;;;;4.47;3.40;;;9.50;99.90;;;;;;5069348;28;20515;-43
2022/01/04 00:55:46;;;;;;;3.60;3.30;;;9.60;99.90;;;;;;5069769;28;20633;-43
2022/01/04 00:58:12;;;;;;;5.13;2.60;;;9.40;99.90;;;;;;5069664;28;21040;-43
2022/01/04 01:00:39;;;;;;;4.20;3.30;;;9.40;99.90;;;;;;5069755;28;20201;-45
2022/01/04 01:03:05;;;;;;;3.83;3.00;;;9.50;99.90;;;;;;5056922;28;20809;-43
2022/01/04 01:05:32;;;;;;;3.83;3.10;;;9.20;99.90;;;;;;5070125;28;20429;-43
2022/01/04 01:07:58;;;;;;;3.50;2.80;;;9.20;99.90;;;;;;5070237;28;20466;-45
2022/01/04 01:10:46;;;;;;;3.30;2.77;;;9.30;99.90;;;;;;5069565;28;20427;-44
2022/01/04 01:13:13;;;;;;;4.23;2.73;;;9.40;99.90;;;;;;5069068;28;20424;-43
2022/01/04 01:15:41;;;;;;;3.83;2.70;;;9.20;99.90;;;;;;5069657;28;20415;-44
2022/01/04 01:18:07;;;;;;;5.17;2.83;;;9.10;99.90;;;;;;5063309;28;20465;-43
2022/01/04 01:20:33;;;;;;;4.10;2.80;;;9.10;99.90;;;;;;5060012;28;20510;-42
2022/01/04 01:22:58;;;;;;;3.63;2.70;;;9.10;99.90;;;;;;5068937;28;20843;-42
2022/01/04 01:25:24;;;;;;;3.27;2.47;;;9.30;99.90;;;;;;5069311;28;20189;-46
2022/01/04 01:27:50;;;;;;;3.07;2.30;;;9.30;99.90;;;;;;5069601;28;20549;-43
2022/01/04 01:30:16;;;;;;;3.60;2.27;;;9.30;99.90;;;;;;5068122;28;20732;-45
2022/01/04 01:32:41;;;;;;;3.13;2.60;;;9.30;99.90;;;;;;5059590;28;20264;-42
2022/01/04 01:35:07;;;;;;;2.77;2.20;;;9.20;99.90;;;;;;5068904;28;20292;-42
2022/01/04 01:37:34;;;;;;;2.30;2.10;;;9.10;99.90;;;;;;5069046;28;20462;-43
2022/01/04 01:40:00;;;;;;;3.87;2.37;;;9.20;99.90;;;;;;5068843;28;20427;-44
2022/01/04 01:42:25;;;;;;;2.20;2.00;;;9.30;99.90;;;;;;5068937;28;20437;-44
2022/01/04 01:44:51;;;;;;;2.43;2.13;;;9.30;99.90;;;;;;5068452;28;20516;-44
2022/01/04 01:47:17;;;;;;;3.00;2.70;;;9.00;99.90;;;;;;5058492;28;20907;-46
2022/01/04 01:49:44;;;;;;;3.00;2.70;;;9.10;99.90;;;;;;5069258;28;20525;-45
2022/01/04 01:52:10;;;;;;;3.50;2.70;;;9.00;99.90;;;;;;5068555;28;20484;-45
2022/01/04 01:54:35;;;;;;;3.20;2.73;;;9.20;99.90;;;;;;5068201;28;20431;-42
2022/01/04 01:57:01;;;;;;;3.07;2.73;;;9.10;99.90;;;;;;5069017;28;20212;-43
2022/01/04 01:59:27;;;;;;;5.17;3.33;;;9.10;99.90;;;;;;5069037;28;20181;-44
2022/01/04 02:01:52;;;;;;;3.70;2.90;;;9.30;99.90;;;;;;5062643;28;20194;-44
2022/01/04 02:04:18;;;;;;;7.40;3.73;;;8.90;99.90;;;;;;5067181;28;20189;-42
2022/01/04 02:06:44;;;;;;;4.47;3.33;;;9.00;99.90;;;;;;5068684;28;20209;-43
2022/01/04 02:09:10;;;;;;;4.03;3.63;;;9.10;99.90;;;;;;5068420;28;20187;-47
2022/01/04 02:11:36;;;;;;;3.50;3.13;;;8.90;99.90;;;;;;5068944;28;20526;-47
2022/01/04 02:14:02;;;;;;;4.60;3.30;;;8.90;99.90;;;;;;5067620;28;20180;-44
2022/01/04 02:16:30;;;;;;;4.17;3.30;;;8.80;99.90;;;;;;5076062;28;20476;-43
2022/01/04 02:19:05;;;;;;;4.30;2.80;;;8.90;99.90;;;;;;5056550;28;20972;-42
2022/01/04 02:21:33;;;;;;;3.50;3.20;;;9.10;99.90;;;;;;5067296;28;20626;-43
2022/01/04 02:23:59;;;;;;;3.30;3.00;;;9.20;99.90;;;;;;5067581;28;20801;-43
2022/01/04 02:26:25;;;;;;;3.47;3.17;;;8.90;99.90;;;;;;5068058;28;20455;-45
2022/01/04 02:28:51;;;;;;;3.53;3.20;;;8.90;99.90;;;;;;5068558;28;20427;-42
2022/01/04 02:31:17;;;;;;;3.63;3.30;;;9.00;99.90;;;;;;5066043;28;20273;-43
2022/01/04 02:33:43;;;;;;;3.97;3.57;;;8.90;99.90;;;;;;5057838;28;20541;-44
2022/01/04 02:36:09;;;;;;;4.00;3.57;;;9.00;99.90;;;;;;5067870;28;20451;-43
2022/01/04 02:38:34;;;;;;;3.33;3.00;;;9.00;99.90;;;;;;5068213;28;20193;-42
2022/01/04 02:41:01;;;;;;;4.37;3.77;;;8.80;99.90;;;;;;5067763;28;20268;-44
2022/01/04 02:43:26;;;;;;;3.93;3.60;;;8.90;99.90;;;;;;5067359;28;20417;-43
2022/01/04 02:45:52;;;;;;;3.83;3.53;;;8.80;99.90;;;;;;5067969;28;20428;-43
2022/01/04 02:48:17;;;;;;;4.63;3.37;;;8.80;99.90;;;;;;5054009;28;20565;-43
2022/01/04 02:50:43;;;;;;;4.10;3.70;;;9.00;99.90;;;;;;5067424;28;20268;-43
2022/01/04 02:53:09;;;;;;;4.20;3.80;;;8.90;99.90;;;;;;5067096;28;20197;-43
2022/01/04 02:55:35;;;;;;;4.83;3.90;;;9.00;99.90;;;;;;5067644;28;20189;-44
2022/01/04 02:58:01;;;;;;;4.40;4.00;;;8.70;99.90;;;;;;5067839;28;20197;-43
2022/01/04 03:00:28;;;;;;;5.40;3.77;;;8.90;99.90;;;;;;5067340;28;20431;-45
2022/01/04 03:02:55;;;;;;;3.73;3.30;;;8.90;99.90;;;;;;5056887;28;20186;-45
2022/01/04 03:05:21;;;;;;;4.70;4.20;;;8.70;99.90;;;;;;5065453;28;20419;-44
2022/01/04 03:07:46;;;;;;;6.43;3.70;;;8.60;99.90;;;;;;5066251;28;21050;-44
2022/01/04 03:10:12;;;;;;;4.10;3.70;;;8.60;99.90;;;;;;5067377;28;20201;-44
2022/01/04 03:12:44;;;;;;;4.43;4.03;;;8.80;99.90;;;;;;5067460;28;20181;-46
2022/01/04 03:15:14;;;;;;;4.43;4.03;;;8.70;99.90;;;;;;5070602;28;20421;-44
2022/01/04 03:17:41;;;;;;;4.10;3.70;;;8.70;99.90;;;;;;5070021;28;20450;-43
2022/01/04 03:20:07;;;;;;;3.50;3.17;;;8.80;99.90;;;;;;5063216;28;20434;-44
2022/01/04 03:22:33;;;;;;;4.47;3.40;;;8.90;99.90;;;;;;5062220;28;20420;-42
2022/01/04 03:24:59;;;;;;;4.43;3.60;;;8.80;99.90;;;;;;5066745;28;20423;-43
2022/01/04 03:27:25;;;;;;;4.47;3.97;;;8.50;99.90;;;;;;5067252;28;20809;-46
2022/01/04 03:29:50;;;;;;;5.10;3.60;;;8.70;99.90;;;;;;5067181;28;20719;-42
2022/01/04 03:32:16;;;;;;;4.40;4.00;;;8.90;99.90;;;;;;5061609;28;20276;-45
2022/01/04 03:34:42;;;;;;;4.57;3.50;;;8.90;99.90;;;;;;5062197;28;20630;-43
2022/01/04 03:37:08;;;;;;;3.70;3.37;;;8.80;99.90;;;;;;5067110;28;20542;-43
2022/01/04 03:39:33;;;;;;;4.10;3.57;;;8.70;99.90;;;;;;5067272;28;20268;-42
2022/01/04 03:41:59;;;;;;;3.97;3.57;;;8.70;99.90;;;;;;5066922;28;20188;-43
2022/01/04 03:44:25;;;;;;;7.53;4.47;;;8.80;99.90;;;;;;5066352;28;20730;-44
2022/01/04 03:46:53;;;;;;;5.20;3.40;;;8.80;99.90;;;;;;5064048;28;20304;-45
2022/01/04 03:49:19;;;;;;;3.50;3.17;;;8.60;99.90;;;;;;5061289;28;20277;-44
2022/01/04 03:51:45;;;;;;;3.73;3.43;;;8.70;99.90;;;;;;5067354;28;20420;-42
2022/01/04 03:54:10;;;;;;;3.43;3.13;;;8.70;99.90;;;;;;5066050;28;20434;-43
2022/01/04 03:56:36;;;;;;;3.63;3.33;;;8.70;99.90;;;;;;5066716;28;20212;-43
2022/01/04 03:59:03;;;;;;;3.87;3.57;;;8.60;99.90;;;;;;5067150;28;20227;-45
2022/01/04 04:01:28;;;;;;;4.07;3.67;;;8.60;99.90;;;;;;5066657;28;20189;-43
2022/01/04 04:03:54;;;;;;;4.30;3.90;;;8.60;99.90;;;;;;5054333;28;20442;-47
2022/01/04 04:06:20;;;;;;;4.60;4.20;;;8.60;99.90;;;;;;5070821;28;20185;-42
2022/01/04 04:08:46;;;;;;;4.80;4.23;;;8.60;99.90;;;;;;5070838;28;20195;-46
2022/01/04 04:11:12;;;;;;;5.03;4.47;;;8.50;99.90;;;;;;5071039;28;20924;-42
2022/01/04 04:13:38;;;;;;;4.63;4.33;;;8.70;99.90;;;;;;5069805;28;20429;-44
2022/01/04 04:16:04;;;;;;;5.00;4.60;;;8.60;99.90;;;;;;5070633;28;20274;-44
2022/01/04 04:18:29;;;;;;;4.80;4.43;;;8.70;99.90;;;;;;5065950;28;20481;-42
2022/01/04 04:20:55;;;;;;;5.17;4.67;;;8.60;99.90;;;;;;5069205;28;20811;-46
2022/01/04 04:23:21;;;;;;;5.13;4.73;;;8.60;99.90;;;;;;5070088;28;20271;-43
2022/01/04 04:25:47;;;;;;;4.73;4.33;;;8.80;99.90;;;;;;5070588;28;20295;-43
2022/01/04 04:28:12;;;;;;;5.03;4.63;;;8.80;99.90;;;;;;5070608;28;20205;-42
2022/01/04 04:30:38;;;;;;;5.50;5.00;;;8.60;99.90;;;;;;5070064;28;20185;-43
2022/01/04 04:33:04;;;;;;;5.40;4.93;;;8.60;99.90;;;;;;5063927;28;20354;-43
2022/01/04 04:35:30;;;;;;;6.20;5.60;;;8.60;99.90;;;;;;5069778;28;20177;-43
2022/01/04 04:38:01;;;;;;;7.20;5.00;;;8.60;99.90;;;;;;5070536;28;20423;-44
2022/01/04 04:40:27;;;;;;;5.83;5.33;;;8.60;99.90;;;;;;5070145;28;20423;-43
2022/01/04 04:42:53;;;;;;;6.07;5.60;;;8.60;99.90;;;;;;5069553;28;20455;-43
2022/01/04 04:45:18;;;;;;;5.20;4.77;;;8.70;99.90;;;;;;5069824;28;20451;-43
2022/01/04 04:47:44;;;;;;;5.40;4.90;;;8.60;99.90;;;;;;5064745;28;20620;-44
2022/01/04 04:50:10;;;;;;;7.80;5.20;;;8.90;99.90;;;;;;5066830;28;20593;-44
2022/01/04 04:52:36;;;;;;;5.00;4.60;;;8.60;99.90;;;;;;5070102;28;20187;-43
2022/01/04 04:55:04;;;;;;;4.83;4.43;;;8.60;99.90;;;;;;5069483;28;20220;-43
2022/01/04 04:57:29;;;;;;;5.97;5.10;;;8.60;99.90;;;;;;5070246;28;20447;-43
2022/01/04 04:59:55;;;;;;;6.70;5.57;;;8.60;99.90;;;;;;5069715;28;20465;-43
2022/01/04 05:02:21;;;;;;;4.90;4.40;;;8.60;99.90;;;;;;5066982;28;20612;-42
2022/01/04 05:04:46;;;;;;;6.40;5.10;;;8.50;99.90;;;;;;5061287;28;20193;-42
2022/01/04 05:07:12;;;;;;;6.30;4.73;;;8.60;99.90;;;;;;5069376;28;20201;-46
2022/01/04 05:09:39;;;;;;;4.73;4.20;;;8.50;99.90;;;;;;5069906;28;20647;-43
2022/01/04 05:12:06;;;;;;;4.70;4.30;;;8.70;99.90;;;;;;5069679;28;20511;-42
2022/01/04 05:14:32;;;;;;;4.50;4.10;;;8.60;99.90;;;;;;5067752;28;20481;-45
2022/01/04 05:16:57;;;;;;;4.03;3.73;;;8.50;99.90;;;;;;5075617;28;20422;-47
2022/01/04 05:19:23;;;;;;;4.17;3.77;;;8.60;99.90;;;;;;5055341;28;20993;-43
2022/01/04 05:21:49;;;;;;;4.80;4.37;;;8.50;99.90;;;;;;5069080;28;20268;-43
2022/01/04 05:24:15;;;;;;;4.23;3.63;;;8.30;99.90;;;;;;5069100;28;20194;-43
2022/01/04 05:26:40;;;;;;;5.00;4.10;;;8.40;99.90;;;;;;5069029;28;20213;-42
2022/01/04 05:29:06;;;;;;;4.80;4.40;;;8.40;99.90;;;;;;5069251;28;20243;-42
2022/01/04 05:31:32;;;;;;;5.30;4.70;;;8.50;99.90;;;;;;5069305;28;20717;-45
2022/01/04 05:33:57;;;;;;;4.90;4.50;;;8.30;99.90;;;;;;5056778;28;20670;-45
2022/01/04 05:36:23;;;;;;;4.97;4.47;;;8.30;99.90;;;;;;5068470;28;20211;-43
2022/01/04 05:38:49;;;;;;;5.50;4.33;;;8.50;99.90;;;;;;5069028;28;20193;-42
2022/01/04 05:41:15;;;;;;;4.07;3.63;;;8.40;99.90;;;;;;5069474;28;20215;-43
2022/01/04 05:43:41;;;;;;;7.63;4.10;;;8.40;99.90;;;;;;5068221;28;20207;-42
2022/01/04 05:46:07;;;;;;;4.43;3.67;;;8.50;99.90;;;;;;5069136;28;20514;-45
2022/01/04 05:48:33;;;;;;;5.27;4.03;;;8.50;99.90;;;;;;5061012;28;20523;-43
2022/01/04 05:50:58;;;;;;;5.10;4.60;;;8.50;99.90;;;;;;5066194;28;20197;-43
2022/01/04 05:53:24;;;;;;;5.87;4.80;;;8.40;99.90;;;;;;5063281;28;20439;-43
2022/01/04 05:55:50;;;;;;;6.40;4.10;;;8.40;99.90;;;;;;5063771;28;20192;-42
2022/01/04 05:58:16;;;;;;;4.63;3.93;;;8.30;99.90;;;;;;5068276;28;20870;-42
2022/01/04 06:00:41;;;;;;;5.57;4.20;;;8.40;99.90;;;;;;5069602;28;20190;-43
2022/01/04 06:03:07;;;;;;;6.43;5.30;;;8.30;99.90;;;;;;5061561;28;20189;-44
2022/01/04 06:05:33;;;;;;;5.57;4.83;;;8.30;99.90;;;;;;5064216;28;20318;-42
2022/01/04 06:07:58;;;;;;;6.03;4.70;;;8.50;99.90;;;;;;5068469;28;20216;-42
2022/01/04 06:10:25;;;;;;;5.83;5.03;;;8.40;99.90;;;;;;5068462;28;20189;-42
2022/01/04 06:15:17;;;;;;;6.57;4.93;;;8.30;99.90;;;;;;5067539;28;20437;-44
2022/01/04 06:17:47;;;;;;;10.77;5.53;;;8.40;99.90;;;;;;5078601;28;20976;-43
2022/01/04 06:20:15;;;;;;;6.80;5.57;;;8.40;99.90;;;;;;5060833;28;20431;-43
2022/01/04 06:22:42;;;;;;;9.20;6.60;;;8.40;99.90;;;;;;5068437;28;20481;-42
2022/01/04 06:25:11;;;;;;;7.33;5.93;;;8.60;99.90;;;;;;5054313;28;20422;-45
2022/01/04 06:27:37;;;;;;;7.60;6.47;;;8.50;99.90;;;;;;5067457;28;20467;-46
2022/01/04 06:30:04;;;;;;;7.20;6.10;;;8.40;99.90;;;;;;5068010;28;20925;-43
2022/01/04 06:32:29;;;;;;;8.00;6.50;;;8.50;99.90;;;;;;5068017;28;20415;-44
2022/01/04 06:34:55;;;;;;;7.37;5.77;;;8.40;99.90;;;;;;5055263;28;20423;-44
2022/01/04 06:37:21;;;;;;;8.00;6.10;;;8.40;99.90;;;;;;5068403;28;20589;-43
2022/01/04 06:39:47;;;;;;;9.60;6.63;;;8.60;99.90;;;;;;5067458;28;20188;-42
2022/01/04 06:42:13;;;;;;;8.50;5.80;;;8.60;99.90;;;;;;5068038;28;20184;-43
2022/01/04 06:44:41;;;;;;;8.67;6.03;;;8.60;99.90;;;;;;5066805;28;20276;-43
2022/01/04 06:47:07;;;;;;;7.77;5.90;;;8.50;99.90;;;;;;5067431;28;20511;-43
2022/01/04 06:49:33;;;;;;;8.30;6.60;;;8.50;99.90;;;;;;5052449;28;20423;-43
2022/01/04 06:51:58;;;;;;;8.67;6.87;;;8.50;99.90;;;;;;5058465;28;20185;-43
2022/01/04 06:54:24;;;;;;;10.80;6.90;;;8.60;99.90;;;;;;5059362;28;20190;-42
2022/01/04 06:56:50;;;;;;;10.03;7.00;;;8.40;99.90;;;;;;5059755;28;20223;-44
2022/01/04 06:59:17;;;;;;;10.30;7.37;;;8.60;99.90;;;;;;5071012;28;20570;-43
2022/01/04 07:01:43;;;;;;;11.60;8.20;;;8.40;99.90;;;;;;5066710;28;20430;-43
2022/01/04 07:04:09;;;;;;;10.60;7.83;;;8.40;99.90;;;;;;5058360;28;20524;-45
2022/01/04 07:06:34;;;;;;;11.07;8.00;;;8.40;99.90;;;;;;5064885;28;20501;-42
2022/01/04 07:09:00;;;;;;;13.17;7.90;;;8.60;99.90;;;;;;5060203;28;20774;-42
2022/01/04 07:11:26;;;;;;;10.73;7.50;;;8.60;99.90;;;;;;5067347;28;20419;-44
2022/01/04 07:13:52;;;;;;;12.73;7.90;;;8.50;99.90;;;;;;5065349;28;20579;-43
2022/01/04 07:16:19;;;;;;;9.67;6.80;;;8.50;99.90;;;;;;5066458;28;20442;-42
2022/01/04 07:18:49;;;;;;;11.90;7.77;;;8.50;99.90;;;;;;5060798;28;20425;-42
2022/01/04 07:21:19;;;;;;;11.23;7.93;;;8.70;99.90;;;;;;5058139;28;20464;-43
2022/01/04 07:23:48;;;;;;;13.30;8.57;;;8.50;99.90;;;;;;5063324;28;20466;-44
2022/01/04 07:26:14;;;;;;;12.43;8.33;;;8.40;99.90;;;;;;5065019;28;20469;-44
2022/01/04 07:28:46;;;;;;;12.20;8.27;;;8.40;99.90;;;;;;5064823;28;20424;-43
2022/01/04 07:31:12;;;;;;;11.30;8.17;;;8.30;99.90;;;;;;5067690;28;20956;-43
2022/01/04 07:33:38;;;;;;;11.60;8.10;;;8.30;99.90;;;;;;5062214;28;20529;-42
2022/01/04 07:36:06;;;;;;;16.43;9.00;;;8.30;99.90;;;;;;5064065;28;20431;-45
2022/01/04 07:38:36;;;;;;;10.67;7.87;;;8.30;99.90;;;;;;5066906;28;20432;-43
2022/01/04 07:41:03;;;;;;;14.00;9.63;;;8.30;99.90;;;;;;5065313;28;20415;-43
2022/01/04 07:43:29;;;;;;;14.40;9.03;;;8.30;99.90;;;;;;5065783;28;20477;-44
2022/01/04 07:45:55;;;;;;;12.00;8.30;;;8.40;99.90;;;;;;5065754;28;20416;-43
2022/01/04 07:48:21;;;;;;;10.87;7.90;;;8.50;99.90;;;;;;5066891;28;20220;-43
2022/01/04 07:50:47;;;;;;;11.67;8.70;;;8.50;99.90;;;;;;5061326;28;20574;-43
2022/01/04 07:53:13;;;;;;;12.20;8.70;;;8.50;99.90;;;;;;5064515;28;20473;-43
2022/01/04 07:55:39;;;;;;;10.87;7.87;;;8.50;99.90;;;;;;5065064;28;20830;-43
2022/01/04 07:58:05;;;;;;;11.33;8.13;;;8.50;99.90;;;;;;5064787;28;20693;-43
2022/01/04 08:00:30;;;;;;;10.00;7.90;;;8.50;99.90;;;;;;5064656;28;20218;-43
2022/01/04 08:02:56;;;;;;;10.03;7.63;;;8.40;99.90;;;;;;5058614;28;20970;-43
2022/01/04 08:05:23;;;;;;;10.60;7.47;;;8.50;99.90;;;;;;5055885;28;20632;-43
2022/01/04 08:07:50;;;;;;;13.33;9.33;;;8.50;99.90;;;;;;5077796;28;20212;-43
2022/01/04 08:10:17;;;;;;;11.07;7.63;;;8.50;99.90;;;;;;5061149;28;20420;-43
2022/01/04 08:12:43;;;;;;;10.70;7.70;;;8.50;99.90;;;;;;5067525;28;20473;-42
2022/01/04 08:15:10;;;;;;;9.80;8.23;;;8.40;99.90;;;;;;5063927;28;20697;-44
2022/01/04 08:17:36;;;;;;;10.93;7.67;;;8.50;99.90;;;;;;5077781;28;20184;-47
2022/01/04 08:20:04;;;;;;;13.37;9.17;;;8.60;99.90;;;;;;5063502;28;20614;-43
2022/01/04 08:22:33;;;;;;;11.60;7.90;;;8.50;99.90;;;;;;5066088;28;20717;-43
2022/01/04 08:25:04;;;;;;;10.30;7.50;;;8.40;99.90;;;;;;5057897;28;20436;-43
2022/01/04 08:27:31;;;;;;;10.77;7.73;;;8.50;99.90;;;;;;5065229;28;20790;-43
2022/01/04 08:29:57;;;;;;;11.07;8.27;;;8.30;99.90;;;;;;5064140;28;20431;-42
2022/01/04 08:32:23;;;;;;;11.53;8.23;;;8.60;99.90;;;;;;5078563;28;20429;-43
2022/01/04 08:34:50;;;;;;;10.70;8.10;;;8.40;99.90;;;;;;5064536;28;20432;-43
2022/01/04 08:37:16;;;;;;;14.23;7.97;;;8.40;99.90;;;;;;5064292;28;20569;-43
2022/01/04 08:39:42;;;;;;;13.30;9.60;;;8.50;99.90;;;;;;5066311;28;20508;-46
2022/01/04 08:42:08;;;;;;;11.43;7.80;;;8.50;99.90;;;;;;5066723;28;20898;-46
2022/01/04 08:44:39;;;;;;;11.67;7.50;;;8.40;99.90;;;;;;5065629;28;20551;-43
2022/01/04 08:47:09;;;;;;;9.37;6.67;;;8.50;99.90;;;;;;5066398;28;20470;-43
2022/01/04 08:49:35;;;;;;;11.20;7.60;;;8.50;99.90;;;;;;5060379;28;20431;-44
2022/01/04 08:52:02;;;;;;;11.13;8.00;;;8.40;99.90;;;;;;5065441;28;20434;-44
2022/01/04 08:54:28;;;;;;;11.37;7.47;;;8.70;99.90;;;;;;5068797;28;20716;-42
2022/01/04 08:56:54;;;;;;;7.97;6.63;;;8.40;99.90;;;;;;5069605;28;20435;-46
2022/01/04 08:59:21;;;;;;;11.50;7.30;;;8.40;99.90;;;;;;5069782;28;20196;-46
2022/01/04 09:01:47;;;;;;;9.80;7.20;;;8.30;99.90;;;;;;5069973;28;20225;-43
2022/01/04 09:04:12;;;;;;;10.43;7.80;;;8.40;99.90;;;;;;5066001;28;20442;-43
2022/01/04 09:06:38;;;;;;;11.00;7.87;;;8.30;99.90;;;;;;5063777;28;20213;-44
2022/01/04 09:09:05;;;;;;;10.07;7.77;;;8.20;99.90;;;;;;5069792;28;20538;-43
2022/01/04 09:11:31;;;;;;;11.30;8.93;;;8.30;99.90;;;;;;5069472;28;20181;-46
2022/01/04 09:14:21;;;;;;;11.17;8.50;;;8.60;99.90;;;;;;5068758;28;20430;-42
2022/01/04 09:19:32;;;;;;;13.60;9.40;;;8.30;99.90;;;;;;5079065;28;20454;-43
2022/01/04 09:21:57;;;;;;;15.67;9.70;;;8.30;99.90;;;;;;5068198;28;20453;-43
2022/01/04 09:24:23;;;;;;;13.13;9.20;;;8.30;99.90;;;;;;5068649;28;20423;-43
2022/01/04 09:26:49;;;;;;;15.47;9.67;;;8.30;99.90;;;;;;5069477;28;20470;-42
2022/01/04 09:29:18;;;;;;;15.53;8.90;;;8.60;99.90;;;;;;5069309;28;20188;-43
2022/01/04 09:31:46;;;;;;;12.73;8.80;;;8.60;99.90;;;;;;5069238;28;21086;-42
2022/01/04 09:34:12;;;;;;;12.10;8.87;;;8.50;99.90;;;;;;5067439;28;20889;-43
2022/01/04 09:36:39;;;;;;;13.23;9.67;;;8.40;99.90;;;;;;5069400;28;20439;-45
2022/01/04 09:39:13;;;;;;;12.37;9.10;;;8.40;99.90;;;;;;5064971;28;20191;-44
2022/01/04 09:41:40;;;;;;;14.40;9.70;;;8.60;99.90;;;;;;5069600;28;20860;-43
2022/01/04 09:44:06;;;;;;;14.00;9.33;;;8.30;99.90;;;;;;5068326;28;20522;-45
2022/01/04 09:46:33;;;;;;;14.93;10.17;;;8.30;99.90;;;;;;5069115;28;20593;-42
2022/01/04 09:48:58;;;;;;;12.93;8.77;;;8.30;99.90;;;;;;5068827;28;20185;-42
2022/01/04 09:51:27;;;;;;;16.03;9.87;;;8.30;99.90;;;;;;5059590;28;20450;-43
2022/01/04 09:53:53;;;;;;;13.00;9.70;;;8.30;99.90;;;;;;5068434;28;20177;-43
2022/01/04 09:56:19;;;;;;;15.10;9.40;;;8.40;99.90;;;;;;5069051;28;20443;-42
2022/01/04 09:58:45;;;;;;;13.90;9.50;;;8.50;99.90;;;;;;5068854;28;20533;-43
2022/01/04 10:01:18;;;;;;;16.63;10.23;;;8.30;99.90;;;;;;5068228;28;20658;-43
2022/01/04 10:03:45;;;;;;;13.53;9.70;;;8.50;99.90;;;;;;5067646;28;20427;-44
2022/01/04 10:06:17;;;;;;;14.90;8.57;;;8.50;99.90;;;;;;5055566;28;20806;-44
2022/01/04 10:08:50;;;;;;;14.97;9.97;;;8.60;99.90;;;;;;5068651;28;20424;-42
2022/01/04 10:11:16;;;;;;;13.27;9.27;;;8.50;99.90;;;;;;5068789;28;21043;-43
2022/01/04 10:13:41;;;;;;;14.93;9.40;;;8.50;99.90;;;;;;5068213;28;20447;-43
2022/01/04 10:16:15;;;;;;;14.47;9.60;;;8.50;99.90;;;;;;5068622;28;20450;-42
2022/01/04 10:18:46;;;;;;;14.97;9.50;;;8.50;99.90;;;;;;5056160;28;20224;-43
2022/01/04 10:21:13;;;;;;;15.10;9.00;;;8.40;99.90;;;;;;5055712;28;21023;-42
2022/01/04 10:23:48;;;;;;;15.77;9.80;;;8.50;99.90;;;;;;5067602;28;20606;-43
2022/01/04 10:26:15;;;;;;;15.43;8.60;;;8.60;99.90;;;;;;5068570;28;20889;-42
2022/01/04 10:28:44;;;;;;;15.00;9.50;;;8.60;99.90;;;;;;5068378;28;20466;-43
2022/01/04 10:31:16;;;;;;;11.67;7.90;;;8.40;99.90;;;;;;5067863;28;20816;-42
2022/01/04 10:33:41;;;;;;;14.90;9.10;;;8.40;99.90;;;;;;5067909;28;20427;-45
2022/01/04 10:36:12;;;;;;;10.03;7.30;;;8.40;99.90;;;;;;5059681;28;21099;-43
2022/01/04 10:38:48;;;;;;;10.63;7.50;;;8.30;99.90;;;;;;5065189;28;20189;-43
2022/01/04 10:41:17;;;;;;;8.90;6.50;;;8.30;99.90;;;;;;5066172;28;20423;-42
2022/01/04 10:43:45;;;;;;;8.70;6.60;;;8.50;99.90;;;;;;5067326;28;20526;-42
2022/01/04 10:46:18;;;;;;;6.33;5.50;;;8.30;99.90;;;;;;5067831;28;20514;-43
2022/01/04 10:48:46;;;;;;;8.23;5.90;;;8.30;99.90;;;;;;5068265;28;20419;-43
2022/01/04 10:51:21;;;;;;;6.93;6.10;;;8.30;99.90;;;;;;5055738;28;20459;-44
2022/01/04 10:53:49;;;;;;;7.30;5.97;;;8.30;99.90;;;;;;5067132;28;20425;-42
2022/01/04 10:56:42;;;;;;;6.37;5.73;;;8.30;99.90;;;;;;5067548;28;20444;-42
2022/01/04 10:59:10;;;;;;;6.77;6.07;;;8.50;99.90;;;;;;5062177;28;20816;-42
2022/01/04 11:01:45;;;;;;;7.67;6.20;;;8.40;99.90;;;;;;5067609;28;20465;-43
2022/01/04 11:04:17;;;;;;;8.67;6.30;;;8.20;99.90;;;;;;5066956;28;20418;-45
2022/01/04 11:06:43;;;;;;;6.50;5.63;;;8.40;99.90;;;;;;5056595;28;20470;-43
2022/01/04 11:09:09;;;;;;;8.50;6.97;;;8.50;99.90;;;;;;5067647;28;20485;-42
2022/01/04 11:11:36;;;;;;;10.50;7.03;;;8.40;99.90;;;;;;5067269;28;20423;-43
2022/01/04 11:14:03;;;;;;;8.40;7.03;;;8.40;99.90;;;;;;5066556;28;20419;-43
2022/01/04 11:16:30;;;;;;;9.93;7.57;;;8.40;99.90;;;;;;5081792;28;20789;-43
2022/01/04 11:18:57;;;;;;;10.50;8.13;;;8.30;99.90;;;;;;5087495;28;20414;-45
2022/01/04 11:21:31;;;;;;;9.47;7.73;;;8.50;99.90;;;;;;5062016;28;20436;-43
2022/01/04 11:23:56;;;;;;;10.17;8.10;;;8.30;99.90;;;;;;5066847;28;20424;-43
2022/01/04 11:26:23;;;;;;;14.47;10.00;;;8.40;99.90;;;;;;5066740;28;20422;-42
2022/01/04 11:28:51;;;;;;;11.03;9.37;;;8.60;99.90;;;;;;5067754;28;20439;-43
2022/01/04 11:31:25;;;;;;;13.53;10.40;;;8.50;99.90;;;;;;5069482;28;20427;-42
2022/01/04 11:34:06;;;;;;;14.33;9.80;;;8.40;99.90;;;;;;5065965;28;20592;-45
2022/01/04 11:36:51;;;;;;;13.10;9.93;;;8.60;99.90;;;;;;5058165;28;20426;-43
2022/01/04 11:39:46;;;;;;;13.20;10.93;;;8.70;99.90;;;;;;5067194;28;20423;-43
2022/01/04 11:42:34;;;;;;;14.67;10.83;;;8.50;99.90;;;;;;5058123;28;20475;-43
2022/01/04 11:45:01;;;;;;;13.93;10.80;;;8.50;99.90;;;;;;5066746;28;20774;-44
2022/01/04 11:47:32;;;;;;;11.90;10.47;;;8.50;99.90;;;;;;5067082;28;20513;-42
2022/01/04 11:50:16;;;;;;;12.97;10.00;;;8.60;99.90;;;;;;5066201;28;20415;-43
2022/01/04 11:52:55;;;;;;;12.57;10.43;;;8.60;99.90;;;;;;5059806;28;20423;-44
2022/01/04 11:55:37;;;;;;;11.27;9.73;;;8.70;99.90;;;;;;5067202;28;20826;-44
2022/01/04 11:58:18;;;;;;;16.40;10.77;;;8.60;99.90;;;;;;5066804;28;20439;-44
2022/01/04 12:00:54;;;;;;;13.17;10.03;;;8.60;99.90;;;;;;5066894;28;20435;-43
2022/01/04 12:03:20;;;;;;;14.33;11.03;;;8.40;99.90;;;;;;5066512;28;20569;-43
2022/01/04 12:05:55;;;;;;;14.77;11.40;;;8.70;99.90;;;;;;5061044;28;20440;-42
2022/01/04 12:08:35;;;;;;;17.00;11.67;;;8.30;99.90;;;;;;5065168;28;20215;-42
2022/01/04 12:11:01;;;;;;;12.87;10.07;;;8.60;99.90;;;;;;5066823;28;20451;-43
2022/01/04 12:13:56;;;;;;;14.23;11.77;;;8.50;99.90;;;;;;5066110;28;20482;-42
2022/01/04 12:16:58;;;;;;;12.40;10.43;;;8.50;99.90;;;;;;5080426;28;20183;-43
2022/01/04 12:19:48;;;;;;;12.63;10.77;;;8.50;99.90;;;;;;5085953;28;20410;-42
2022/01/04 12:22:29;;;;;;;15.90;11.43;;;8.70;99.90;;;;;;5058531;28;20428;-43
2022/01/04 12:25:01;;;;;;;12.73;10.73;;;8.70;99.90;;;;;;5063352;28;20442;-42
2022/01/04 12:27:27;;;;;;;15.80;11.43;;;8.60;99.90;;;;;;5070870;28;20496;-44
2022/01/04 12:30:25;;;;;;;13.27;11.13;;;8.60;99.90;;;;;;5070196;28;20787;-42
2022/01/04 12:32:51;;;;;;;14.07;12.17;;;8.60;99.90;;;;;;5070403;28;20652;-43
2022/01/04 12:35:17;;;;;;;21.60;10.77;;;8.70;99.90;;;;;;5069399;28;20839;-42
2022/01/04 12:37:43;;;;;;;15.07;11.70;;;8.60;99.90;;;;;;5059393;28;20780;-42
2022/01/04 12:40:09;;;;;;;16.30;11.87;;;8.60;99.90;;;;;;5069884;28;20438;-42
2022/01/04 12:42:39;;;;;;;16.57;12.03;;;8.50;99.90;;;;;;5070478;28;20196;-43
2022/01/04 12:45:05;;;;;;;15.27;11.67;;;8.50;99.90;;;;;;5069971;28;20431;-43
2022/01/04 12:47:32;;;;;;;16.30;11.87;;;8.60;99.90;;;;;;5070491;28;20516;-42
2022/01/04 12:49:59;;;;;;;18.13;13.47;;;8.50;99.90;;;;;;5070232;28;20419;-42
2022/01/04 12:52:25;;;;;;;18.10;12.30;;;8.60;99.90;;;;;;5057801;28;20794;-42
2022/01/04 12:54:51;;;;;;;22.00;14.00;;;8.40;99.90;;;;;;5069647;28;20420;-42
2022/01/04 12:57:20;;;;;;;19.67;13.70;;;8.70;99.90;;;;;;5070098;28;20458;-42
2022/01/04 12:59:53;;;;;;;18.80;13.40;;;8.70;99.90;;;;;;5070201;28;20189;-44
2022/01/04 13:02:30;;;;;;;21.63;12.77;;;8.70;99.90;;;;;;5070033;28;20929;-43